Terminal Aerodrome Forecast
Issued by NWS

Home | Current Version | Previous Version | Text Only | Print | Product List | Glossary On
Versions: 1 2 3 4 5 6 7 8 9 10 11 12 13 14 15 16 17 18 19 20 21 22 23 24
000
FTUS45 KREV 052320
TAFTVL
TAF
KTVL 052320Z 0600/0624 VRB04KT P6SM -RA FEW025 OVC040
     FM060600 VRB03KT P6SM VCSH FEW040 OVC060
     FM061200 VRB03KT 5SM -RA FEW025 OVC040=

USA.gov is the U.S. government's official web portal to all federal, state and local government web resources and services.